sensor_id;sensor_type;location;lat;lon;timestamp;P1;durP1;ratioP1;P2;durP2;ratioP2
31043;SDS011;17710;52.520;13.352;2022-11-03T00:00:31;10.65;;;3.72;;
31043;SDS011;17710;52.520;13.352;2022-11-03T00:02:58;9.88;;;3.60;;
31043;SDS011;17710;52.520;13.352;2022-11-03T00:05:24;8.93;;;2.97;;
31043;SDS011;17710;52.520;13.352;2022-11-03T00:08:10;11.52;;;3.65;;
31043;SDS011;17710;52.520;13.352;2022-11-03T00:10:36;12.90;;;3.88;;
31043;SDS011;17710;52.520;13.352;2022-11-03T00:13:03;11.43;;;3.42;;
31043;SDS011;17710;52.520;13.352;2022-11-03T00:15:29;10.30;;;3.15;;
31043;SDS011;17710;52.520;13.352;2022-11-03T00:17:56;13.23;;;3.45;;
31043;SDS011;17710;52.520;13.352;2022-11-03T00:20:22;9.68;;;3.30;;
31043;SDS011;17710;52.520;13.352;2022-11-03T00:22:48;9.98;;;3.58;;
31043;SDS011;17710;52.520;13.352;2022-11-03T00:25:16;9.43;;;3.38;;
31043;SDS011;17710;52.520;13.352;2022-11-03T00:27:43;13.73;;;3.10;;
31043;SDS011;17710;52.520;13.352;2022-11-03T00:30:09;10.32;;;3.13;;
31043;SDS011;17710;52.520;13.352;2022-11-03T00:32:36;13.50;;;3.92;;
31043;SDS011;17710;52.520;13.352;2022-11-03T00:35:03;7.57;;;3.20;;
31043;SDS011;17710;52.520;13.352;2022-11-03T00:37:30;9.43;;;3.13;;
31043;SDS011;17710;52.520;13.352;2022-11-03T00:39:56;10.40;;;3.33;;
31043;SDS011;17710;52.520;13.352;2022-11-03T00:42:24;10.75;;;3.45;;
31043;SDS011;17710;52.520;13.352;2022-11-03T00:44:50;12.30;;;3.45;;
31043;SDS011;17710;52.520;13.352;2022-11-03T00:47:17;4.57;;;2.95;;
31043;SDS011;17710;52.520;13.352;2022-11-03T00:49:43;7.97;;;3.08;;
31043;SDS011;17710;52.520;13.352;2022-11-03T00:52:09;8.95;;;3.33;;
31043;SDS011;17710;52.520;13.352;2022-11-03T00:54:36;11.00;;;3.15;;
31043;SDS011;17710;52.520;13.352;2022-11-03T00:57:02;11.50;;;4.10;;
31043;SDS011;17710;52.520;13.352;2022-11-03T00:59:30;13.23;;;3.75;;
31043;SDS011;17710;52.520;13.352;2022-11-03T01:01:56;14.23;;;3.50;;
31043;SDS011;17710;52.520;13.352;2022-11-03T01:04:23;12.00;;;3.40;;
31043;SDS011;17710;52.520;13.352;2022-11-03T01:07:07;14.80;;;3.65;;
31043;SDS011;17710;52.520;13.352;2022-11-03T01:09:34;11.55;;;3.42;;
31043;SDS011;17710;52.520;13.352;2022-11-03T01:12:02;10.50;;;3.72;;
31043;SDS011;17710;52.520;13.352;2022-11-03T01:14:33;8.88;;;3.28;;
31043;SDS011;17710;52.520;13.352;2022-11-03T01:17:01;16.67;;;3.28;;
31043;SDS011;17710;52.520;13.352;2022-11-03T01:19:30;14.43;;;3.55;;
31043;SDS011;17710;52.520;13.352;2022-11-03T01:21:56;8.40;;;3.10;;
31043;SDS011;17710;52.520;13.352;2022-11-03T01:24:23;9.65;;;3.38;;
31043;SDS011;17710;52.520;13.352;2022-11-03T01:26:49;9.65;;;3.90;;
31043;SDS011;17710;52.520;13.352;2022-11-03T01:29:15;11.00;;;4.53;;
31043;SDS011;17710;52.520;13.352;2022-11-03T01:31:43;13.57;;;3.70;;
31043;SDS011;17710;52.520;13.352;2022-11-03T01:34:11;10.55;;;3.50;;
31043;SDS011;17710;52.520;13.352;2022-11-03T01:36:39;13.32;;;3.60;;
31043;SDS011;17710;52.520;13.352;2022-11-03T01:39:07;8.98;;;3.70;;
31043;SDS011;17710;52.520;13.352;2022-11-03T01:41:35;13.55;;;3.85;;
31043;SDS011;17710;52.520;13.352;2022-11-03T01:47:00;12.17;;;3.37;;
31043;SDS011;17710;52.520;13.352;2022-11-03T01:49:32;9.60;;;3.28;;
31043;SDS011;17710;52.520;13.352;2022-11-03T01:52:05;8.90;;;3.05;;
31043;SDS011;17710;52.520;13.352;2022-11-03T01:54:35;17.55;;;3.15;;
31043;SDS011;17710;52.520;13.352;2022-11-03T01:57:03;14.50;;;3.03;;
31043;SDS011;17710;52.520;13.352;2022-11-03T01:59:34;8.18;;;2.47;;
31043;SDS011;17710;52.520;13.352;2022-11-03T02:02:02;13.43;;;3.50;;
31043;SDS011;17710;52.520;13.352;2022-11-03T02:04:30;12.90;;;2.95;;
31043;SDS011;17710;52.520;13.352;2022-11-03T02:07:00;14.95;;;3.38;;
31043;SDS011;17710;52.520;13.352;2022-11-03T02:09:33;9.40;;;3.28;;
31043;SDS011;17710;52.520;13.352;2022-11-03T02:11:59;12.48;;;2.83;;
31043;SDS011;17710;52.520;13.352;2022-11-03T02:14:33;8.90;;;3.22;;
31043;SDS011;17710;52.520;13.352;2022-11-03T02:17:05;10.68;;;3.55;;
31043;SDS011;17710;52.520;13.352;2022-11-03T02:19:35;13.48;;;3.42;;
31043;SDS011;17710;52.520;13.352;2022-11-03T02:22:06;10.00;;;3.15;;
31043;SDS011;17710;52.520;13.352;2022-11-03T02:24:48;9.32;;;2.80;;
31043;SDS011;17710;52.520;13.352;2022-11-03T02:27:17;12.23;;;2.92;;
31043;SDS011;17710;52.520;13.352;2022-11-03T02:29:44;7.60;;;3.13;;
31043;SDS011;17710;52.520;13.352;2022-11-03T02:32:13;9.55;;;3.45;;
31043;SDS011;17710;52.520;13.352;2022-11-03T02:34:46;9.00;;;3.42;;
31043;SDS011;17710;52.520;13.352;2022-11-03T02:37:18;10.32;;;2.90;;
31043;SDS011;17710;52.520;13.352;2022-11-03T02:39:49;12.73;;;3.38;;
31043;SDS011;17710;52.520;13.352;2022-11-03T02:42:20;12.48;;;3.10;;
31043;SDS011;17710;52.520;13.352;2022-11-03T02:44:50;9.63;;;2.63;;
31043;SDS011;17710;52.520;13.352;2022-11-03T02:47:19;8.48;;;3.00;;
31043;SDS011;17710;52.520;13.352;2022-11-03T02:49:49;11.80;;;3.05;;
31043;SDS011;17710;52.520;13.352;2022-11-03T02:52:35;14.90;;;3.30;;
31043;SDS011;17710;52.520;13.352;2022-11-03T02:55:05;10.30;;;2.92;;
31043;SDS011;17710;52.520;13.352;2022-11-03T02:57:38;10.25;;;2.90;;
31043;SDS011;17710;52.520;13.352;2022-11-03T03:00:12;13.55;;;3.30;;
31043;SDS011;17710;52.520;13.352;2022-11-03T03:02:43;8.35;;;3.13;;
31043;SDS011;17710;52.520;13.352;2022-11-03T03:05:16;16.05;;;2.90;;
31043;SDS011;17710;52.520;13.352;2022-11-03T03:07:46;12.77;;;2.50;;
31043;SDS011;17710;52.520;13.352;2022-11-03T03:10:17;8.45;;;2.63;;
31043;SDS011;17710;52.520;13.352;2022-11-03T03:12:48;13.00;;;2.45;;
31043;SDS011;17710;52.520;13.352;2022-11-03T03:15:17;13.73;;;3.28;;
31043;SDS011;17710;52.520;13.352;2022-11-03T03:17:49;13.60;;;3.03;;
31043;SDS011;17710;52.520;13.352;2022-11-03T03:20:20;10.63;;;2.88;;
31043;SDS011;17710;52.520;13.352;2022-11-03T03:22:50;10.15;;;2.53;;
31043;SDS011;17710;52.520;13.352;2022-11-03T03:25:21;7.57;;;2.30;;
31043;SDS011;17710;52.520;13.352;2022-11-03T03:27:54;8.27;;;2.55;;
31043;SDS011;17710;52.520;13.352;2022-11-03T03:30:25;10.18;;;2.53;;
31043;SDS011;17710;52.520;13.352;2022-11-03T03:32:54;6.30;;;2.78;;
31043;SDS011;17710;52.520;13.352;2022-11-03T03:35:22;17.58;;;2.78;;
31043;SDS011;17710;52.520;13.352;2022-11-03T03:37:52;11.52;;;3.08;;
31043;SDS011;17710;52.520;13.352;2022-11-03T03:40:23;9.77;;;2.10;;
31043;SDS011;17710;52.520;13.352;2022-11-03T03:42:54;10.70;;;2.33;;
31043;SDS011;17710;52.520;13.352;2022-11-03T03:45:22;8.68;;;2.55;;
31043;SDS011;17710;52.520;13.352;2022-11-03T03:47:50;8.20;;;2.10;;
31043;SDS011;17710;52.520;13.352;2022-11-03T03:50:17;13.18;;;2.70;;
31043;SDS011;17710;52.520;13.352;2022-11-03T03:52:45;6.80;;;2.15;;
31043;SDS011;17710;52.520;13.352;2022-11-03T03:55:14;13.60;;;2.95;;
31043;SDS011;17710;52.520;13.352;2022-11-03T03:57:43;14.52;;;2.70;;
31043;SDS011;17710;52.520;13.352;2022-11-03T04:00:12;7.25;;;2.40;;
31043;SDS011;17710;52.520;13.352;2022-11-03T04:02:40;10.35;;;2.92;;
31043;SDS011;17710;52.520;13.352;2022-11-03T04:05:06;5.93;;;2.42;;
31043;SDS011;17710;52.520;13.352;2022-11-03T04:07:33;8.82;;;2.67;;
31043;SDS011;17710;52.520;13.352;2022-11-03T04:10:20;9.30;;;2.17;;
31043;SDS011;17710;52.520;13.352;2022-11-03T04:12:47;11.02;;;2.53;;
31043;SDS011;17710;52.520;13.352;2022-11-03T04:15:33;8.05;;;2.33;;
31043;SDS011;17710;52.520;13.352;2022-11-03T04:18:18;17.00;;;2.63;;
31043;SDS011;17710;52.520;13.352;2022-11-03T04:21:02;12.10;;;2.80;;
31043;SDS011;17710;52.520;13.352;2022-11-03T04:23:47;7.47;;;2.30;;
31043;SDS011;17710;52.520;13.352;2022-11-03T04:26:14;10.65;;;2.72;;
31043;SDS011;17710;52.520;13.352;2022-11-03T04:28:42;7.90;;;3.03;;
31043;SDS011;17710;52.520;13.352;2022-11-03T04:31:10;12.00;;;2.65;;
31043;SDS011;17710;52.520;13.352;2022-11-03T04:33:38;13.88;;;2.75;;
31043;SDS011;17710;52.520;13.352;2022-11-03T04:36:08;12.93;;;2.63;;
31043;SDS011;17710;52.520;13.352;2022-11-03T04:38:37;8.63;;;2.35;;
31043;SDS011;17710;52.520;13.352;2022-11-03T04:41:05;7.22;;;2.20;;
31043;SDS011;17710;52.520;13.352;2022-11-03T04:43:37;8.63;;;2.75;;
31043;SDS011;17710;52.520;13.352;2022-11-03T04:46:04;6.82;;;2.38;;
31043;SDS011;17710;52.520;13.352;2022-11-03T04:48:32;7.80;;;2.70;;
31043;SDS011;17710;52.520;13.352;2022-11-03T04:50:59;8.90;;;2.45;;
31043;SDS011;17710;52.520;13.352;2022-11-03T04:56:07;8.47;;;3.20;;
31043;SDS011;17710;52.520;13.352;2022-11-03T04:58:39;11.73;;;2.70;;
31043;SDS011;17710;52.520;13.352;2022-11-03T05:01:07;11.70;;;2.90;;
31043;SDS011;17710;52.520;13.352;2022-11-03T05:03:38;13.20;;;3.38;;
31043;SDS011;17710;52.520;13.352;2022-11-03T05:06:11;10.20;;;3.47;;
31043;SDS011;17710;52.520;13.352;2022-11-03T05:08:39;10.50;;;2.85;;
31043;SDS011;17710;52.520;13.352;2022-11-03T05:11:11;10.88;;;3.35;;
31043;SDS011;17710;52.520;13.352;2022-11-03T05:13:42;7.90;;;3.20;;
31043;SDS011;17710;52.520;13.352;2022-11-03T05:16:09;13.68;;;3.58;;
31043;SDS011;17710;52.520;13.352;2022-11-03T05:18:36;14.23;;;3.75;;
31043;SDS011;17710;52.520;13.352;2022-11-03T05:21:08;10.77;;;3.70;;
31043;SDS011;17710;52.520;13.352;2022-11-03T05:23:38;11.65;;;3.83;;
31043;SDS011;17710;52.520;13.352;2022-11-03T05:26:10;8.27;;;3.13;;
31043;SDS011;17710;52.520;13.352;2022-11-03T05:28:39;13.38;;;4.25;;
31043;SDS011;17710;52.520;13.352;2022-11-03T05:31:18;15.05;;;4.40;;
31043;SDS011;17710;52.520;13.352;2022-11-03T05:33:48;10.73;;;3.47;;
31043;SDS011;17710;52.520;13.352;2022-11-03T05:36:18;12.20;;;3.70;;
31043;SDS011;17710;52.520;13.352;2022-11-03T05:38:46;13.55;;;3.72;;
31043;SDS011;17710;52.520;13.352;2022-11-03T05:41:13;13.30;;;3.78;;
31043;SDS011;17710;52.520;13.352;2022-11-03T05:43:53;13.43;;;3.47;;
31043;SDS011;17710;52.520;13.352;2022-11-03T05:46:22;15.38;;;5.47;;
31043;SDS011;17710;52.520;13.352;2022-11-03T05:48:53;15.10;;;3.83;;
31043;SDS011;17710;52.520;13.352;2022-11-03T05:51:20;12.43;;;3.55;;
31043;SDS011;17710;52.520;13.352;2022-11-03T05:53:50;6.95;;;3.50;;
31043;SDS011;17710;52.520;13.352;2022-11-03T05:56:19;9.68;;;3.80;;
31043;SDS011;17710;52.520;13.352;2022-11-03T05:58:47;13.32;;;3.65;;
31043;SDS011;17710;52.520;13.352;2022-11-03T06:01:16;13.40;;;3.72;;
31043;SDS011;17710;52.520;13.352;2022-11-03T06:03:45;11.63;;;3.70;;
31043;SDS011;17710;52.520;13.352;2022-11-03T06:06:15;15.23;;;3.88;;
31043;SDS011;17710;52.520;13.352;2022-11-03T06:08:46;14.93;;;4.25;;
31043;SDS011;17710;52.520;13.352;2022-11-03T06:11:20;11.35;;;4.18;;
31043;SDS011;17710;52.520;13.352;2022-11-03T06:13:50;13.73;;;3.45;;
31043;SDS011;17710;52.520;13.352;2022-11-03T06:16:25;10.00;;;3.30;;
31043;SDS011;17710;52.520;13.352;2022-11-03T06:19:01;11.52;;;3.50;;
31043;SDS011;17710;52.520;13.352;2022-11-03T06:21:41;9.18;;;3.28;;
31043;SDS011;17710;52.520;13.352;2022-11-03T06:24:08;10.02;;;2.67;;
31043;SDS011;17710;52.520;13.352;2022-11-03T06:26:36;9.93;;;3.55;;
31043;SDS011;17710;52.520;13.352;2022-11-03T06:29:03;11.55;;;2.92;;
31043;SDS011;17710;52.520;13.352;2022-11-03T06:31:30;10.27;;;3.47;;
31043;SDS011;17710;52.520;13.352;2022-11-03T06:34:01;9.52;;;3.25;;
31043;SDS011;17710;52.520;13.352;2022-11-03T06:36:46;13.65;;;3.63;;
31043;SDS011;17710;52.520;13.352;2022-11-03T06:39:15;7.13;;;3.45;;
31043;SDS011;17710;52.520;13.352;2022-11-03T06:41:46;13.57;;;3.90;;
31043;SDS011;17710;52.520;13.352;2022-11-03T06:44:18;14.90;;;3.75;;
31043;SDS011;17710;52.520;13.352;2022-11-03T06:46:47;12.45;;;4.78;;
31043;SDS011;17710;52.520;13.352;2022-11-03T06:52:06;14.52;;;3.28;;
31043;SDS011;17710;52.520;13.352;2022-11-03T06:54:47;9.63;;;2.63;;
31043;SDS011;17710;52.520;13.352;2022-11-03T06:57:15;10.88;;;3.47;;
31043;SDS011;17710;52.520;13.352;2022-11-03T06:59:44;12.02;;;3.35;;
31043;SDS011;17710;52.520;13.352;2022-11-03T07:02:13;12.43;;;4.15;;
31043;SDS011;17710;52.520;13.352;2022-11-03T07:04:59;12.38;;;3.90;;
31043;SDS011;17710;52.520;13.352;2022-11-03T07:07:27;14.85;;;4.07;;
31043;SDS011;17710;52.520;13.352;2022-11-03T07:09:54;12.52;;;3.65;;
31043;SDS011;17710;52.520;13.352;2022-11-03T07:12:20;9.63;;;3.50;;
31043;SDS011;17710;52.520;13.352;2022-11-03T07:14:47;9.63;;;3.25;;
31043;SDS011;17710;52.520;13.352;2022-11-03T07:17:14;10.85;;;3.13;;
31043;SDS011;17710;52.520;13.352;2022-11-03T07:19:45;9.93;;;3.17;;
31043;SDS011;17710;52.520;13.352;2022-11-03T07:22:13;11.98;;;3.78;;
31043;SDS011;17710;52.520;13.352;2022-11-03T07:24:46;10.05;;;4.10;;
31043;SDS011;17710;52.520;13.352;2022-11-03T07:27:16;11.48;;;3.13;;
31043;SDS011;17710;52.520;13.352;2022-11-03T07:29:46;15.02;;;3.08;;
31043;SDS011;17710;52.520;13.352;2022-11-03T07:32:15;16.02;;;3.42;;
31043;SDS011;17710;52.520;13.352;2022-11-03T07:34:45;17.95;;;3.30;;
31043;SDS011;17710;52.520;13.352;2022-11-03T07:37:13;14.57;;;3.60;;
31043;SDS011;17710;52.520;13.352;2022-11-03T07:39:43;11.20;;;3.17;;
31043;SDS011;17710;52.520;13.352;2022-11-03T07:42:12;13.63;;;3.75;;
31043;SDS011;17710;52.520;13.352;2022-11-03T07:44:43;11.45;;;3.88;;
31043;SDS011;17710;52.520;13.352;2022-11-03T07:47:10;12.43;;;3.88;;
31043;SDS011;17710;52.520;13.352;2022-11-03T07:49:38;9.00;;;2.97;;
31043;SDS011;17710;52.520;13.352;2022-11-03T07:52:06;10.20;;;3.10;;
31043;SDS011;17710;52.520;13.352;2022-11-03T07:54:36;10.38;;;3.03;;
31043;SDS011;17710;52.520;13.352;2022-11-03T07:57:05;10.38;;;3.78;;
31043;SDS011;17710;52.520;13.352;2022-11-03T07:59:39;13.30;;;3.17;;
31043;SDS011;17710;52.520;13.352;2022-11-03T08:02:12;11.27;;;2.83;;
31043;SDS011;17710;52.520;13.352;2022-11-03T08:04:51;15.30;;;3.40;;
31043;SDS011;17710;52.520;13.352;2022-11-03T08:07:17;15.07;;;3.45;;
31043;SDS011;17710;52.520;13.352;2022-11-03T08:09:44;8.82;;;2.72;;
31043;SDS011;17710;52.520;13.352;2022-11-03T08:12:11;12.85;;;3.63;;
31043;SDS011;17710;52.520;13.352;2022-11-03T08:14:38;16.02;;;3.10;;
31043;SDS011;17710;52.520;13.352;2022-11-03T08:17:04;12.25;;;2.75;;
31043;SDS011;17710;52.520;13.352;2022-11-03T08:19:31;9.30;;;2.70;;
31043;SDS011;17710;52.520;13.352;2022-11-03T08:21:57;20.52;;;3.83;;
31043;SDS011;17710;52.520;13.352;2022-11-03T08:24:24;10.27;;;3.53;;
31043;SDS011;17710;52.520;13.352;2022-11-03T08:26:50;11.80;;;3.40;;
31043;SDS011;17710;52.520;13.352;2022-11-03T08:29:18;11.25;;;2.97;;
31043;SDS011;17710;52.520;13.352;2022-11-03T08:31:45;11.13;;;2.65;;
31043;SDS011;17710;52.520;13.352;2022-11-03T08:34:12;17.83;;;3.83;;
31043;SDS011;17710;52.520;13.352;2022-11-03T08:36:38;15.43;;;3.78;;
31043;SDS011;17710;52.520;13.352;2022-11-03T08:39:04;13.63;;;3.47;;
31043;SDS011;17710;52.520;13.352;2022-11-03T08:41:31;11.27;;;3.17;;
31043;SDS011;17710;52.520;13.352;2022-11-03T08:43:57;12.13;;;2.83;;
31043;SDS011;17710;52.520;13.352;2022-11-03T08:46:25;11.82;;;2.97;;
31043;SDS011;17710;52.520;13.352;2022-11-03T08:48:51;15.95;;;3.17;;
31043;SDS011;17710;52.520;13.352;2022-11-03T08:51:18;12.30;;;3.65;;
31043;SDS011;17710;52.520;13.352;2022-11-03T08:53:44;11.57;;;3.20;;
31043;SDS011;17710;52.520;13.352;2022-11-03T08:56:14;11.13;;;3.33;;
31043;SDS011;17710;52.520;13.352;2022-11-03T08:58:41;11.73;;;2.70;;
31043;SDS011;17710;52.520;13.352;2022-11-03T09:01:08;8.43;;;3.30;;
31043;SDS011;17710;52.520;13.352;2022-11-03T09:03:35;10.88;;;2.95;;
31043;SDS011;17710;52.520;13.352;2022-11-03T09:06:02;11.02;;;2.90;;
31043;SDS011;17710;52.520;13.352;2022-11-03T09:08:29;10.63;;;2.72;;
31043;SDS011;17710;52.520;13.352;2022-11-03T09:10:55;9.48;;;2.95;;
31043;SDS011;17710;52.520;13.352;2022-11-03T09:13:22;8.27;;;2.10;;
31043;SDS011;17710;52.520;13.352;2022-11-03T09:15:48;9.50;;;2.92;;
31043;SDS011;17710;52.520;13.352;2022-11-03T09:18:14;13.05;;;3.35;;
31043;SDS011;17710;52.520;13.352;2022-11-03T09:20:42;10.15;;;2.53;;
31043;SDS011;17710;52.520;13.352;2022-11-03T09:23:09;9.35;;;2.50;;
31043;SDS011;17710;52.520;13.352;2022-11-03T09:25:35;15.50;;;3.00;;
31043;SDS011;17710;52.520;13.352;2022-11-03T09:28:02;13.65;;;2.53;;
31043;SDS011;17710;52.520;13.352;2022-11-03T09:30:29;17.10;;;3.58;;
31043;SDS011;17710;52.520;13.352;2022-11-03T09:32:55;14.77;;;2.80;;
31043;SDS011;17710;52.520;13.352;2022-11-03T09:35:22;13.93;;;2.45;;
31043;SDS011;17710;52.520;13.352;2022-11-03T09:37:49;11.70;;;2.85;;
31043;SDS011;17710;52.520;13.352;2022-11-03T09:40:16;11.93;;;2.50;;
31043;SDS011;17710;52.520;13.352;2022-11-03T09:42:45;14.00;;;2.65;;
31043;SDS011;17710;52.520;13.352;2022-11-03T09:45:12;5.78;;;2.08;;
31043;SDS011;17710;52.520;13.352;2022-11-03T09:47:39;12.40;;;3.30;;
31043;SDS011;17710;52.520;13.352;2022-11-03T09:50:10;10.55;;;2.75;;
31043;SDS011;17710;52.520;13.352;2022-11-03T09:52:39;14.27;;;2.70;;
31043;SDS011;17710;52.520;13.352;2022-11-03T09:55:11;14.02;;;2.50;;
31043;SDS011;17710;52.520;13.352;2022-11-03T09:57:40;12.93;;;2.13;;
31043;SDS011;17710;52.520;13.352;2022-11-03T10:00:20;8.32;;;2.28;;
31043;SDS011;17710;52.520;13.352;2022-11-03T10:02:48;11.38;;;1.95;;
31043;SDS011;17710;52.520;13.352;2022-11-03T10:05:17;9.35;;;1.83;;
31043;SDS011;17710;52.520;13.352;2022-11-03T10:07:47;11.23;;;2.13;;
31043;SDS011;17710;52.520;13.352;2022-11-03T10:10:17;8.07;;;2.13;;
31043;SDS011;17710;52.520;13.352;2022-11-03T10:12:46;10.25;;;1.88;;
31043;SDS011;17710;52.520;13.352;2022-11-03T10:15:14;7.35;;;1.98;;
31043;SDS011;17710;52.520;13.352;2022-11-03T10:17:42;10.95;;;2.97;;
31043;SDS011;17710;52.520;13.352;2022-11-03T10:20:10;11.27;;;2.65;;
31043;SDS011;17710;52.520;13.352;2022-11-03T10:22:37;5.40;;;1.60;;
31043;SDS011;17710;52.520;13.352;2022-11-03T10:28:11;6.88;;;2.58;;
31043;SDS011;17710;52.520;13.352;2022-11-03T10:30:50;7.07;;;1.98;;
31043;SDS011;17710;52.520;13.352;2022-11-03T10:33:24;8.18;;;1.80;;
31043;SDS011;17710;52.520;13.352;2022-11-03T10:35:55;10.88;;;2.22;;
31043;SDS011;17710;52.520;13.352;2022-11-03T10:38:24;9.57;;;2.25;;
31043;SDS011;17710;52.520;13.352;2022-11-03T10:40:57;7.30;;;2.63;;
31043;SDS011;17710;52.520;13.352;2022-11-03T10:43:35;10.15;;;2.15;;
31043;SDS011;17710;52.520;13.352;2022-11-03T10:46:13;12.82;;;2.05;;
31043;SDS011;17710;52.520;13.352;2022-11-03T10:48:42;7.72;;;2.50;;
31043;SDS011;17710;52.520;13.352;2022-11-03T10:51:09;13.23;;;1.90;;
31043;SDS011;17710;52.520;13.352;2022-11-03T10:53:37;9.30;;;1.67;;
31043;SDS011;17710;52.520;13.352;2022-11-03T10:56:05;9.20;;;1.88;;
31043;SDS011;17710;52.520;13.352;2022-11-03T10:58:32;12.68;;;2.33;;
31043;SDS011;17710;52.520;13.352;2022-11-03T11:00:59;7.32;;;1.58;;
31043;SDS011;17710;52.520;13.352;2022-11-03T11:03:26;6.03;;;2.15;;
31043;SDS011;17710;52.520;13.352;2022-11-03T11:05:52;11.80;;;2.28;;
31043;SDS011;17710;52.520;13.352;2022-11-03T11:08:20;10.05;;;2.42;;
31043;SDS011;17710;52.520;13.352;2022-11-03T11:10:48;9.02;;;2.03;;
31043;SDS011;17710;52.520;13.352;2022-11-03T11:13:23;9.50;;;2.10;;
31043;SDS011;17710;52.520;13.352;2022-11-03T11:15:54;12.80;;;2.78;;
31043;SDS011;17710;52.520;13.352;2022-11-03T11:21:58;9.57;;;2.00;;
31043;SDS011;17710;52.520;13.352;2022-11-03T11:33:33;9.52;;;2.45;;
31043;SDS011;17710;52.520;13.352;2022-11-03T11:38:56;8.32;;;2.20;;
31043;SDS011;17710;52.520;13.352;2022-11-03T11:44:45;11.80;;;2.20;;
31043;SDS011;17710;52.520;13.352;2022-11-03T11:47:24;11.10;;;2.30;;
31043;SDS011;17710;52.520;13.352;2022-11-03T11:50:01;13.00;;;2.15;;
31043;SDS011;17710;52.520;13.352;2022-11-03T11:52:44;11.13;;;2.70;;
31043;SDS011;17710;52.520;13.352;2022-11-03T11:55:15;10.63;;;2.00;;
31043;SDS011;17710;52.520;13.352;2022-11-03T11:57:43;7.88;;;2.25;;
31043;SDS011;17710;52.520;13.352;2022-11-03T12:00:18;6.68;;;1.90;;
31043;SDS011;17710;52.520;13.352;2022-11-03T12:02:46;10.98;;;1.92;;
31043;SDS011;17710;52.520;13.352;2022-11-03T12:05:18;13.23;;;2.35;;
31043;SDS011;17710;52.520;13.352;2022-11-03T12:07:47;9.23;;;2.00;;
31043;SDS011;17710;52.520;13.352;2022-11-03T12:10:14;10.15;;;2.28;;
31043;SDS011;17710;52.520;13.352;2022-11-03T12:12:41;14.38;;;1.95;;
31043;SDS011;17710;52.520;13.352;2022-11-03T12:20:58;8.75;;;1.90;;
31043;SDS011;17710;52.520;13.352;2022-11-03T12:23:32;9.82;;;2.10;;
31043;SDS011;17710;52.520;13.352;2022-11-03T12:26:03;16.75;;;2.05;;
31043;SDS011;17710;52.520;13.352;2022-11-03T12:28:30;8.90;;;2.03;;
31043;SDS011;17710;52.520;13.352;2022-11-03T12:31:01;11.50;;;2.40;;
31043;SDS011;17710;52.520;13.352;2022-11-03T12:33:29;12.65;;;2.33;;
31043;SDS011;17710;52.520;13.352;2022-11-03T12:35:55;5.63;;;1.65;;
31043;SDS011;17710;52.520;13.352;2022-11-03T12:38:23;9.60;;;2.20;;
31043;SDS011;17710;52.520;13.352;2022-11-03T12:40:50;10.30;;;1.92;;
31043;SDS011;17710;52.520;13.352;2022-11-03T12:43:17;8.35;;;3.03;;
31043;SDS011;17710;52.520;13.352;2022-11-03T12:45:44;12.93;;;2.80;;
31043;SDS011;17710;52.520;13.352;2022-11-03T12:48:10;10.30;;;2.15;;
31043;SDS011;17710;52.520;13.352;2022-11-03T12:50:37;8.65;;;2.13;;
31043;SDS011;17710;52.520;13.352;2022-11-03T12:53:04;9.15;;;2.40;;
31043;SDS011;17710;52.520;13.352;2022-11-03T12:55:33;11.90;;;2.22;;
31043;SDS011;17710;52.520;13.352;2022-11-03T12:57:59;8.45;;;1.90;;
31043;SDS011;17710;52.520;13.352;2022-11-03T13:00:27;10.95;;;2.10;;
31043;SDS011;17710;52.520;13.352;2022-11-03T13:02:53;9.50;;;2.35;;
31043;SDS011;17710;52.520;13.352;2022-11-03T13:05:20;7.38;;;2.33;;
31043;SDS011;17710;52.520;13.352;2022-11-03T13:07:46;8.35;;;2.20;;
31043;SDS011;17710;52.520;13.352;2022-11-03T13:10:13;7.82;;;1.83;;
31043;SDS011;17710;52.520;13.352;2022-11-03T13:12:41;9.98;;;2.30;;
31043;SDS011;17710;52.520;13.352;2022-11-03T13:15:09;9.07;;;2.35;;
31043;SDS011;17710;52.520;13.352;2022-11-03T13:17:37;11.27;;;1.85;;
31043;SDS011;17710;52.520;13.352;2022-11-03T13:20:05;10.52;;;2.70;;
31043;SDS011;17710;52.520;13.352;2022-11-03T13:22:32;10.35;;;2.22;;
31043;SDS011;17710;52.520;13.352;2022-11-03T13:24:58;8.85;;;2.05;;
31043;SDS011;17710;52.520;13.352;2022-11-03T13:27:25;9.73;;;1.90;;
31043;SDS011;17710;52.520;13.352;2022-11-03T13:29:52;8.93;;;2.20;;
31043;SDS011;17710;52.520;13.352;2022-11-03T13:32:20;8.20;;;2.17;;
31043;SDS011;17710;52.520;13.352;2022-11-03T13:34:46;10.05;;;2.20;;
31043;SDS011;17710;52.520;13.352;2022-11-03T13:37:13;10.93;;;2.58;;
31043;SDS011;17710;52.520;13.352;2022-11-03T13:39:40;8.77;;;2.00;;
31043;SDS011;17710;52.520;13.352;2022-11-03T13:42:07;6.80;;;2.05;;
31043;SDS011;17710;52.520;13.352;2022-11-03T13:44:33;11.63;;;2.33;;
31043;SDS011;17710;52.520;13.352;2022-11-03T13:47:01;13.15;;;1.65;;
31043;SDS011;17710;52.520;13.352;2022-11-03T13:49:28;8.18;;;2.08;;
31043;SDS011;17710;52.520;13.352;2022-11-03T13:51:55;9.85;;;2.50;;
31043;SDS011;17710;52.520;13.352;2022-11-03T13:54:21;8.60;;;2.10;;
31043;SDS011;17710;52.520;13.352;2022-11-03T13:56:47;7.22;;;2.13;;
31043;SDS011;17710;52.520;13.352;2022-11-03T13:59:14;9.07;;;2.33;;
31043;SDS011;17710;52.520;13.352;2022-11-03T14:01:40;15.38;;;2.50;;
31043;SDS011;17710;52.520;13.352;2022-11-03T14:04:08;15.88;;;3.15;;
31043;SDS011;17710;52.520;13.352;2022-11-03T14:06:34;9.23;;;2.28;;
31043;SDS011;17710;52.520;13.352;2022-11-03T14:09:01;12.13;;;2.50;;
31043;SDS011;17710;52.520;13.352;2022-11-03T14:11:27;15.55;;;2.80;;
31043;SDS011;17710;52.520;13.352;2022-11-03T14:14:11;5.60;;;2.63;;
31043;SDS011;17710;52.520;13.352;2022-11-03T14:16:37;12.15;;;2.78;;
31043;SDS011;17710;52.520;13.352;2022-11-03T14:19:04;10.27;;;2.53;;
31043;SDS011;17710;52.520;13.352;2022-11-03T14:21:32;11.32;;;2.50;;
31043;SDS011;17710;52.520;13.352;2022-11-03T14:24:01;7.35;;;2.25;;
31043;SDS011;17710;52.520;13.352;2022-11-03T14:26:28;16.27;;;2.17;;
31043;SDS011;17710;52.520;13.352;2022-11-03T14:28:54;8.98;;;2.45;;
31043;SDS011;17710;52.520;13.352;2022-11-03T14:31:20;11.07;;;2.58;;
31043;SDS011;17710;52.520;13.352;2022-11-03T14:33:47;10.60;;;2.42;;
31043;SDS011;17710;52.520;13.352;2022-11-03T14:36:13;10.52;;;2.47;;
31043;SDS011;17710;52.520;13.352;2022-11-03T14:38:41;11.85;;;3.22;;
31043;SDS011;17710;52.520;13.352;2022-11-03T14:41:07;13.73;;;2.30;;
31043;SDS011;17710;52.520;13.352;2022-11-03T14:43:51;8.70;;;2.17;;
31043;SDS011;17710;52.520;13.352;2022-11-03T14:46:17;7.85;;;2.35;;
31043;SDS011;17710;52.520;13.352;2022-11-03T14:48:43;13.65;;;2.53;;
31043;SDS011;17710;52.520;13.352;2022-11-03T14:51:10;9.55;;;2.55;;
31043;SDS011;17710;52.520;13.352;2022-11-03T14:53:36;13.05;;;2.70;;
31043;SDS011;17710;52.520;13.352;2022-11-03T14:56:04;9.50;;;2.80;;
31043;SDS011;17710;52.520;13.352;2022-11-03T14:58:31;12.45;;;2.55;;
31043;SDS011;17710;52.520;13.352;2022-11-03T15:00:57;12.10;;;3.42;;
31043;SDS011;17710;52.520;13.352;2022-11-03T15:03:24;8.68;;;2.90;;
31043;SDS011;17710;52.520;13.352;2022-11-03T15:05:50;10.75;;;3.22;;
31043;SDS011;17710;52.520;13.352;2022-11-03T15:08:20;8.23;;;3.05;;
31043;SDS011;17710;52.520;13.352;2022-11-03T15:10:47;9.85;;;3.10;;
31043;SDS011;17710;52.520;13.352;2022-11-03T15:13:16;11.32;;;2.65;;